Time;durP1;ratioP1;P1;durP2;ratioP2;P2;SDS_P1;SDS_P2;PMS_P1;PMS_P2;Temp;Humidity;BMP_temperature;BMP_pressure;BME280_temperature;BME280_humidity;BME280_pressure;Samples;Min_cycle;Max_cycle;Signal;HPM_P1;HPM_P2
2023/10/03 00:01:01;;;;;;;54.45;34.47;;;17.50;99.90;;;;;;5100747;28;20398;-50
2023/10/03 00:03:26;;;;;;;49.95;34.85;;;17.40;99.90;;;;;;5081076;28;20051;-47
2023/10/03 00:05:52;;;;;;;52.75;34.95;;;17.50;99.90;;;;;;5100315;28;20046;-48
2023/10/03 00:08:18;;;;;;;51.80;32.55;;;17.40;99.90;;;;;;5099124;28;20491;-48
2023/10/03 00:10:45;;;;;;;46.33;33.42;;;17.40;99.90;;;;;;5100197;28;20142;-46
2023/10/03 00:13:12;;;;;;;54.35;36.83;;;17.40;99.90;;;;;;5097763;28;20047;-50
2023/10/03 00:15:43;;;;;;;50.78;33.90;;;17.40;99.90;;;;;;5086936;28;20113;-49
2023/10/03 00:18:09;;;;;;;50.33;33.60;;;17.40;99.90;;;;;;5100256;28;20507;-50
2023/10/03 00:20:36;;;;;;;51.35;34.80;;;17.30;99.90;;;;;;5100469;28;20043;-48
2023/10/03 00:23:02;;;;;;;46.33;32.33;;;17.40;99.90;;;;;;5100297;28;20067;-49
2023/10/03 00:25:28;;;;;;;52.83;35.33;;;17.30;99.90;;;;;;5104333;28;20110;-48
2023/10/03 00:27:59;;;;;;;55.03;36.10;;;17.30;99.90;;;;;;5085810;28;20050;-48
2023/10/03 00:30:26;;;;;;;51.17;35.00;;;17.30;99.90;;;;;;5102790;28;20179;-48
2023/10/03 00:33:02;;;;;;;54.72;35.13;;;17.30;99.90;;;;;;5084916;28;20559;-45
2023/10/03 00:35:28;;;;;;;55.22;37.22;;;17.20;99.90;;;;;;5136455;27;20051;-46
2023/10/03 00:37:54;;;;;;;48.13;34.88;;;17.30;99.90;;;;;;5102424;28;20521;-46
2023/10/03 00:42:54;;;;;;;52.95;34.95;;;17.20;99.90;;;;;;5100131;28;20144;-49
2023/10/03 00:45:21;;;;;;;50.05;35.45;;;17.20;99.90;;;;;;5092662;28;20126;-49
2023/10/03 00:48:00;;;;;;;55.63;36.75;;;17.20;99.90;;;;;;5084986;28;20050;-49
2023/10/03 00:50:29;;;;;;;50.83;35.47;;;17.20;99.90;;;;;;5128585;27;20073;-47
2023/10/03 00:53:12;;;;;;;48.00;33.40;;;17.20;99.90;;;;;;5102575;28;20178;-49
2023/10/03 00:55:41;;;;;;;49.63;32.95;;;17.20;99.90;;;;;;5096778;28;20062;-49
2023/10/03 01:00:37;;;;;;;53.47;33.63;;;17.20;99.90;;;;;;5102936;28;20613;-50
2023/10/03 01:03:05;;;;;;;48.10;32.97;;;17.10;99.90;;;;;;5098725;28;20058;-50
2023/10/03 01:05:31;;;;;;;46.65;31.55;;;17.20;99.90;;;;;;5103478;27;20428;-49
2023/10/03 01:07:57;;;;;;;45.35;29.98;;;17.10;99.90;;;;;;5102091;28;20575;-46
2023/10/03 01:10:22;;;;;;;48.30;32.45;;;17.10;99.90;;;;;;5103241;28;20118;-47
2023/10/03 01:12:49;;;;;;;46.05;31.08;;;17.20;99.90;;;;;;5103163;28;20061;-47
2023/10/03 01:15:16;;;;;;;46.03;29.73;;;17.20;99.90;;;;;;5102618;28;20173;-47
2023/10/03 01:17:48;;;;;;;44.25;29.85;;;17.20;99.90;;;;;;5103453;28;20050;-47
2023/10/03 01:20:23;;;;;;;48.67;32.87;;;17.20;99.90;;;;;;5101399;28;20048;-46
2023/10/03 01:22:51;;;;;;;49.05;31.38;;;17.20;99.90;;;;;;5102660;28;20301;-49
2023/10/03 01:25:17;;;;;;;48.45;30.77;;;17.20;99.90;;;;;;5102596;28;20422;-44
2023/10/03 01:27:42;;;;;;;47.10;30.83;;;17.30;99.90;;;;;;5102305;28;20031;-44
2023/10/03 01:30:08;;;;;;;43.60;29.40;;;17.30;99.90;;;;;;5100586;28;20153;-47
2023/10/03 01:32:51;;;;;;;48.08;30.63;;;17.20;99.90;;;;;;5100294;28;20050;-44
2023/10/03 01:35:16;;;;;;;42.38;28.67;;;17.20;99.90;;;;;;5099131;28;20083;-47
2023/10/03 01:37:45;;;;;;;47.22;30.73;;;17.20;99.90;;;;;;5102680;28;20131;-45
2023/10/03 01:40:13;;;;;;;46.75;30.63;;;17.20;99.90;;;;;;5102382;28;20151;-47
2023/10/03 01:42:47;;;;;;;44.90;30.10;;;17.20;99.90;;;;;;5098428;28;20098;-48
2023/10/03 01:45:17;;;;;;;45.03;30.58;;;17.20;99.90;;;;;;5092682;28;20116;-44
2023/10/03 01:47:51;;;;;;;46.75;29.67;;;17.10;99.90;;;;;;5100597;28;20048;-46
2023/10/03 01:50:21;;;;;;;43.92;29.13;;;17.20;99.90;;;;;;5102292;28;20051;-46
2023/10/03 01:52:48;;;;;;;49.92;28.55;;;17.20;99.90;;;;;;5101442;28;20640;-49
2023/10/03 01:55:17;;;;;;;46.28;29.80;;;17.20;99.90;;;;;;5090684;28;20584;-47
2023/10/03 01:57:44;;;;;;;42.78;27.85;;;17.20;99.90;;;;;;5099424;28;20052;-46
2023/10/03 02:02:50;;;;;;;50.97;31.15;;;17.10;99.90;;;;;;5095664;28;20571;-46
2023/10/03 02:05:20;;;;;;;47.35;27.75;;;17.10;99.90;;;;;;5100158;28;20031;-49
2023/10/03 02:07:45;;;;;;;46.25;29.25;;;17.10;99.90;;;;;;5099469;28;20406;-44
2023/10/03 02:10:14;;;;;;;47.25;29.42;;;17.00;99.90;;;;;;5100971;28;20087;-46
2023/10/03 02:12:48;;;;;;;49.78;28.63;;;17.00;99.90;;;;;;5101318;28;20051;-45
2023/10/03 02:15:21;;;;;;;45.10;28.38;;;17.00;99.90;;;;;;5099039;28;20054;-47
2023/10/03 02:17:49;;;;;;;46.10;28.83;;;17.00;99.90;;;;;;5099668;28;20415;-47
2023/10/03 02:20:20;;;;;;;43.13;29.15;;;17.00;99.90;;;;;;5100934;28;20491;-47
2023/10/03 02:22:53;;;;;;;46.88;28.23;;;17.00;99.90;;;;;;5100270;28;20044;-48
2023/10/03 02:25:21;;;;;;;46.47;27.17;;;17.00;99.90;;;;;;5087272;28;20498;-46
2023/10/03 02:27:46;;;;;;;44.72;26.90;;;17.00;99.90;;;;;;5101331;28;20514;-49
2023/10/03 02:30:13;;;;;;;42.00;26.33;;;17.00;99.90;;;;;;5101041;28;20473;-48
2023/10/03 02:32:41;;;;;;;42.85;27.48;;;17.00;99.90;;;;;;5100468;27;20147;-47
2023/10/03 02:35:08;;;;;;;41.97;27.20;;;17.00;99.90;;;;;;5100454;28;20096;-48
2023/10/03 02:37:34;;;;;;;42.90;24.63;;;17.00;99.90;;;;;;5101191;28;20418;-48
2023/10/03 02:40:00;;;;;;;41.00;25.65;;;17.10;99.90;;;;;;5100911;28;20089;-46
2023/10/03 02:42:26;;;;;;;41.65;25.00;;;17.10;99.90;;;;;;5081703;28;20540;-48
2023/10/03 02:44:51;;;;;;;41.78;27.48;;;17.20;99.90;;;;;;5085972;28;20142;-45
2023/10/03 02:47:17;;;;;;;42.13;27.13;;;17.20;99.90;;;;;;5099220;28;20031;-46
2023/10/03 02:49:43;;;;;;;42.53;26.05;;;17.20;99.90;;;;;;5100429;28;20124;-48
2023/10/03 02:52:10;;;;;;;42.40;27.38;;;17.20;99.90;;;;;;5098585;28;20586;-47
2023/10/03 02:54:35;;;;;;;45.25;26.17;;;17.20;99.90;;;;;;5100613;28;20048;-49
2023/10/03 02:57:01;;;;;;;44.85;26.52;;;17.20;99.90;;;;;;5099513;28;20455;-48
2023/10/03 02:59:27;;;;;;;43.22;25.48;;;17.30;99.90;;;;;;5100728;28;20399;-46
2023/10/03 03:01:56;;;;;;;41.42;25.00;;;17.20;99.90;;;;;;5096599;28;20064;-47
2023/10/03 03:04:23;;;;;;;43.83;25.08;;;17.30;99.90;;;;;;5092059;28;20039;-46
2023/10/03 03:06:51;;;;;;;43.15;26.67;;;17.30;99.90;;;;;;5100340;28;20581;-45
2023/10/03 03:09:23;;;;;;;39.63;24.92;;;17.30;99.90;;;;;;5098676;28;20085;-48
2023/10/03 03:11:49;;;;;;;37.50;24.35;;;17.20;99.90;;;;;;5098635;28;20047;-46
2023/10/03 03:14:16;;;;;;;42.22;25.17;;;17.20;99.90;;;;;;5098938;28;20537;-45
2023/10/03 03:16:42;;;;;;;41.45;24.83;;;17.20;99.90;;;;;;5100114;28;20594;-46
2023/10/03 03:19:08;;;;;;;41.55;25.60;;;17.20;99.90;;;;;;5099260;28;20047;-48
2023/10/03 03:21:34;;;;;;;43.83;25.45;;;17.20;99.90;;;;;;5098383;28;20525;-48
2023/10/03 03:24:08;;;;;;;41.38;24.98;;;17.10;99.90;;;;;;5099560;28;20040;-48
2023/10/03 03:26:39;;;;;;;39.35;23.30;;;17.20;99.90;;;;;;5099871;27;20046;-46
2023/10/03 03:29:16;;;;;;;41.17;25.02;;;17.10;99.90;;;;;;5081240;28;20477;-45
2023/10/03 03:31:42;;;;;;;41.03;24.23;;;17.10;99.90;;;;;;5097507;28;20089;-48
2023/10/03 03:34:08;;;;;;;37.55;23.15;;;17.10;99.90;;;;;;5099870;28;20130;-50
2023/10/03 03:36:38;;;;;;;42.92;26.38;;;17.20;99.90;;;;;;5098214;28;20437;-49
2023/10/03 03:39:13;;;;;;;43.63;25.50;;;17.20;99.90;;;;;;5098034;28;20058;-47
2023/10/03 03:41:39;;;;;;;41.45;25.42;;;17.20;99.90;;;;;;5099703;28;20043;-50
2023/10/03 03:44:12;;;;;;;40.78;24.65;;;17.20;99.90;;;;;;5086191;28;20392;-46
2023/10/03 03:46:40;;;;;;;41.47;25.13;;;17.20;99.90;;;;;;5086849;28;20131;-48
2023/10/03 03:49:09;;;;;;;38.20;22.92;;;17.20;99.90;;;;;;5080964;28;20044;-48
2023/10/03 03:51:35;;;;;;;40.95;24.20;;;17.20;99.90;;;;;;5098117;28;20504;-46
2023/10/03 03:54:03;;;;;;;36.80;24.23;;;17.20;99.90;;;;;;5098054;28;20118;-48
2023/10/03 03:56:29;;;;;;;42.72;24.08;;;17.30;99.90;;;;;;5097544;28;20047;-48
2023/10/03 03:58:55;;;;;;;40.25;24.15;;;17.30;99.90;;;;;;5103079;28;20112;-46
2023/10/03 04:01:21;;;;;;;39.47;24.40;;;17.30;99.90;;;;;;5102107;28;20459;-47
2023/10/03 04:03:51;;;;;;;35.95;22.75;;;17.30;99.90;;;;;;5084426;28;20505;-45
2023/10/03 04:06:18;;;;;;;39.08;23.08;;;17.30;99.90;;;;;;5102211;28;20043;-45
2023/10/03 04:08:45;;;;;;;38.60;22.80;;;17.30;99.90;;;;;;5101805;28;20048;-47
2023/10/03 04:11:12;;;;;;;35.55;22.77;;;17.30;99.90;;;;;;5103138;28;20039;-47
2023/10/03 04:13:49;;;;;;;40.47;21.35;;;17.30;99.90;;;;;;5084773;28;20044;-48
2023/10/03 04:16:21;;;;;;;36.80;21.67;;;17.40;99.90;;;;;;5103413;28;20061;-48
2023/10/03 04:18:50;;;;;;;34.80;20.35;;;17.40;99.90;;;;;;5130817;27;20072;-45
2023/10/03 04:21:16;;;;;;;33.88;19.45;;;17.50;99.90;;;;;;5101260;28;20044;-45
2023/10/03 04:23:43;;;;;;;32.47;19.15;;;17.60;99.90;;;;;;5101572;28;20104;-47
2023/10/03 04:26:10;;;;;;;33.65;18.85;;;17.80;99.90;;;;;;5103410;28;20071;-46
2023/10/03 04:28:36;;;;;;;33.25;20.33;;;17.90;99.90;;;;;;5102030;28;20047;-45
2023/10/03 04:31:01;;;;;;;35.72;18.65;;;18.00;99.90;;;;;;5103118;28;20047;-47
2023/10/03 04:33:27;;;;;;;34.30;17.15;;;18.10;99.90;;;;;;5101127;28;20447;-49
2023/10/03 04:35:53;;;;;;;35.00;18.48;;;18.20;99.90;;;;;;5102933;28;20395;-50
2023/10/03 04:38:18;;;;;;;32.33;16.52;;;18.30;99.90;;;;;;5101680;28;20105;-50
2023/10/03 04:40:47;;;;;;;33.97;17.17;;;18.30;99.90;;;;;;5102977;28;20053;-47
2023/10/03 04:43:14;;;;;;;29.85;18.60;;;18.30;99.90;;;;;;5096112;28;20043;-47
2023/10/03 04:45:41;;;;;;;35.20;17.75;;;18.40;99.90;;;;;;5094728;28;20047;-47
2023/10/03 04:48:07;;;;;;;35.70;18.13;;;18.40;99.90;;;;;;5101655;28;20040;-46
2023/10/03 04:50:35;;;;;;;31.60;18.30;;;18.40;99.90;;;;;;5103323;28;20027;-49
2023/10/03 04:53:02;;;;;;;32.45;17.42;;;18.40;99.90;;;;;;5100820;28;20656;-46
2023/10/03 04:55:28;;;;;;;33.20;18.33;;;18.40;99.90;;;;;;5103239;28;20084;-46
2023/10/03 04:57:55;;;;;;;34.63;18.05;;;18.40;99.90;;;;;;5084498;28;20055;-48
2023/10/03 05:00:23;;;;;;;39.63;19.10;;;18.50;99.90;;;;;;5102777;28;20054;-47
2023/10/03 05:02:50;;;;;;;37.30;21.13;;;18.50;99.90;;;;;;5099179;28;20039;-50
2023/10/03 05:05:21;;;;;;;37.00;20.75;;;18.50;99.90;;;;;;5100700;28;20135;-45
2023/10/03 05:07:48;;;;;;;38.95;20.55;;;18.50;99.90;;;;;;5102652;28;20039;-49
2023/10/03 05:10:15;;;;;;;39.72;21.65;;;18.50;99.90;;;;;;5102306;28;20097;-45
2023/10/03 05:12:40;;;;;;;46.80;23.80;;;18.40;99.90;;;;;;5101815;28;20452;-49
2023/10/03 05:15:09;;;;;;;40.17;23.55;;;18.50;99.90;;;;;;5101162;28;20044;-47
2023/10/03 05:17:36;;;;;;;44.03;23.95;;;18.50;99.90;;;;;;5100842;28;20043;-46
2023/10/03 05:20:03;;;;;;;47.45;25.60;;;18.50;99.90;;;;;;5101873;28;20048;-48
2023/10/03 05:22:33;;;;;;;43.83;24.80;;;18.50;99.90;;;;;;5101929;28;20043;-46
2023/10/03 05:25:03;;;;;;;46.15;25.73;;;18.50;99.90;;;;;;5099866;28;20779;-48
2023/10/03 05:27:29;;;;;;;40.58;23.63;;;18.40;99.90;;;;;;5101982;28;20074;-45
2023/10/03 05:29:59;;;;;;;40.95;22.40;;;18.50;99.90;;;;;;5101462;28;20394;-45
2023/10/03 05:32:28;;;;;;;44.78;22.88;;;18.40;99.90;;;;;;5082474;28;20128;-46
2023/10/03 05:34:54;;;;;;;46.78;23.15;;;18.50;99.90;;;;;;5134255;27;20395;-46
2023/10/03 05:37:20;;;;;;;42.80;23.00;;;18.40;99.90;;;;;;5101802;28;20133;-45
2023/10/03 05:39:45;;;;;;;46.10;23.02;;;18.40;99.90;;;;;;5134080;27;20059;-46
2023/10/03 05:42:11;;;;;;;40.38;21.48;;;18.40;99.90;;;;;;5101003;28;20043;-47
2023/10/03 05:44:37;;;;;;;42.17;22.48;;;18.40;99.90;;;;;;5087347;28;20031;-48
2023/10/03 05:47:03;;;;;;;38.75;21.00;;;18.40;99.90;;;;;;5101496;27;20095;-46
2023/10/03 05:49:29;;;;;;;40.80;20.55;;;18.40;99.90;;;;;;5099810;28;20479;-46
2023/10/03 05:51:57;;;;;;;41.42;20.60;;;18.30;99.90;;;;;;5099444;28;20043;-48
2023/10/03 05:54:24;;;;;;;41.70;19.67;;;18.20;99.90;;;;;;5099335;28;20043;-47
2023/10/03 05:56:51;;;;;;;37.50;19.63;;;18.20;99.90;;;;;;5099883;28;20055;-47
2023/10/03 05:59:18;;;;;;;33.83;17.70;;;18.30;99.90;;;;;;5099645;28;20498;-47
2023/10/03 06:01:43;;;;;;;31.13;16.38;;;18.20;99.90;;;;;;5096779;28;20039;-46
2023/10/03 06:04:09;;;;;;;34.75;17.45;;;18.20;99.90;;;;;;5099278;28;20048;-46
2023/10/03 06:06:35;;;;;;;29.80;16.30;;;18.20;99.90;;;;;;5101144;28;20046;-45
2023/10/03 06:09:02;;;;;;;29.98;15.13;;;18.10;99.90;;;;;;5099753;28;20159;-48
2023/10/03 06:11:29;;;;;;;26.67;14.48;;;18.10;99.90;;;;;;5101073;28;20259;-47
2023/10/03 06:13:57;;;;;;;26.75;15.02;;;18.10;99.90;;;;;;5100635;28;20043;-47
2023/10/03 06:16:23;;;;;;;29.42;12.93;;;18.10;99.90;;;;;;5101203;28;20067;-47
2023/10/03 06:18:50;;;;;;;29.05;13.52;;;18.10;99.90;;;;;;5100965;28;20055;-45
2023/10/03 06:21:16;;;;;;;29.40;13.77;;;18.00;99.90;;;;;;5100101;28;20040;-48
2023/10/03 06:23:42;;;;;;;30.00;14.20;;;18.00;99.90;;;;;;5089969;28;20046;-46
2023/10/03 06:26:08;;;;;;;30.65;13.15;;;18.00;99.90;;;;;;5100661;27;20407;-47
2023/10/03 06:28:33;;;;;;;30.77;12.00;;;18.00;99.90;;;;;;5101139;28;20569;-49
2023/10/03 06:30:59;;;;;;;28.95;14.35;;;18.00;99.90;;;;;;5099030;28;20080;-46
2023/10/03 06:33:27;;;;;;;27.10;11.32;;;18.00;99.90;;;;;;5100718;28;20410;-46
2023/10/03 06:35:52;;;;;;;23.83;11.32;;;18.00;99.90;;;;;;5100778;28;20047;-47
2023/10/03 06:38:23;;;;;;;25.13;11.13;;;17.90;99.90;;;;;;5100461;28;20043;-46
2023/10/03 06:40:49;;;;;;;24.25;11.40;;;17.90;99.90;;;;;;5098833;28;20133;-46
2023/10/03 06:43:16;;;;;;;25.40;10.75;;;17.90;99.90;;;;;;5096051;28;20043;-44
2023/10/03 06:45:42;;;;;;;21.65;10.00;;;17.90;99.90;;;;;;5100476;28;20147;-46
2023/10/03 06:48:09;;;;;;;20.30;8.18;;;17.80;99.90;;;;;;5087356;28;20039;-50
2023/10/03 06:50:35;;;;;;;24.38;9.07;;;17.80;99.90;;;;;;5099697;28;20511;-45
2023/10/03 06:53:01;;;;;;;24.02;8.30;;;17.80;99.90;;;;;;5081225;28;20051;-49
2023/10/03 06:55:26;;;;;;;20.88;8.40;;;17.70;99.90;;;;;;5100307;28;20075;-46
2023/10/03 06:57:52;;;;;;;23.67;7.85;;;17.60;99.90;;;;;;5100081;28;20136;-46
2023/10/03 07:00:21;;;;;;;24.67;8.40;;;17.60;99.90;;;;;;5098760;28;20051;-49
2023/10/03 07:02:48;;;;;;;22.67;8.05;;;17.60;99.90;;;;;;5095051;28;20399;-44
2023/10/03 07:05:13;;;;;;;27.98;8.70;;;17.50;99.90;;;;;;5100106;27;20093;-45
2023/10/03 07:07:39;;;;;;;27.02;9.00;;;17.40;99.90;;;;;;5100146;28;20896;-45
2023/10/03 07:10:07;;;;;;;26.92;10.70;;;17.50;99.90;;;;;;5098564;28;20476;-46
2023/10/03 07:12:33;;;;;;;36.10;12.77;;;17.40;99.90;;;;;;5099683;28;20478;-47
2023/10/03 07:14:58;;;;;;;39.10;14.00;;;17.40;99.90;;;;;;5098538;28;20043;-50
2023/10/03 07:17:24;;;;;;;38.13;11.82;;;17.30;99.90;;;;;;5098265;28;20375;-46
2023/10/03 07:19:50;;;;;;;29.83;10.18;;;17.20;99.90;;;;;;5100090;28;20078;-45
2023/10/03 07:22:19;;;;;;;28.52;10.73;;;17.00;99.90;;;;;;5099407;28;20125;-44
2023/10/03 07:24:44;;;;;;;27.73;8.30;;;17.10;99.90;;;;;;5099232;28;20046;-46
2023/10/03 07:27:13;;;;;;;21.70;8.60;;;17.00;99.90;;;;;;5098307;28;20047;-46
2023/10/03 07:29:42;;;;;;;21.90;6.97;;;16.90;99.90;;;;;;5081358;28;20040;-44
2023/10/03 07:32:12;;;;;;;28.35;8.95;;;16.90;99.90;;;;;;5098454;28;20236;-44
2023/10/03 07:34:42;;;;;;;18.42;6.60;;;16.80;99.90;;;;;;5081332;28;20394;-46
2023/10/03 07:37:09;;;;;;;23.80;7.45;;;16.80;99.90;;;;;;5088588;28;20131;-45
2023/10/03 07:39:35;;;;;;;17.17;5.90;;;16.80;99.90;;;;;;5105049;27;20039;-48
2023/10/03 07:42:01;;;;;;;17.05;6.22;;;16.80;99.90;;;;;;5108870;27;20050;-47
2023/10/03 07:44:27;;;;;;;17.20;4.95;;;16.80;99.90;;;;;;5102957;28;20138;-46
2023/10/03 07:46:53;;;;;;;12.75;4.18;;;16.70;99.90;;;;;;5105027;28;20073;-48
2023/10/03 07:49:18;;;;;;;14.05;4.88;;;16.70;99.90;;;;;;5099705;28;20265;-45
2023/10/03 07:51:45;;;;;;;19.83;4.15;;;16.80;99.90;;;;;;5099127;28;20031;-45
2023/10/03 07:54:11;;;;;;;16.73;4.20;;;16.80;99.90;;;;;;5099597;28;20077;-47
2023/10/03 07:56:41;;;;;;;7.85;2.97;;;16.80;99.90;;;;;;5109074;28;20039;-47
2023/10/03 07:59:07;;;;;;;18.08;3.70;;;16.70;99.90;;;;;;5090672;28;20040;-48
2023/10/03 08:01:33;;;;;;;12.68;3.70;;;16.70;99.90;;;;;;5095411;28;20044;-48
2023/10/03 08:03:58;;;;;;;17.60;3.92;;;16.70;99.90;;;;;;5091338;28;20040;-46
2023/10/03 08:06:33;;;;;;;13.88;3.38;;;16.80;99.90;;;;;;5096945;28;20894;-48
2023/10/03 08:08:59;;;;;;;11.95;3.70;;;16.80;99.90;;;;;;5098277;28;20058;-49
2023/10/03 08:11:31;;;;;;;13.10;3.33;;;16.80;99.90;;;;;;5098479;28;20105;-48
2023/10/03 08:13:58;;;;;;;12.23;2.97;;;16.80;99.90;;;;;;5097693;28;20047;-44
2023/10/03 08:16:25;;;;;;;11.25;2.53;;;16.80;99.90;;;;;;5097246;28;20480;-48
2023/10/03 08:18:57;;;;;;;14.27;3.03;;;16.80;99.90;;;;;;5098839;28;20569;-47
2023/10/03 08:21:27;;;;;;;9.82;2.83;;;16.90;99.90;;;;;;5130084;27;20210;-48
2023/10/03 08:23:57;;;;;;;12.38;2.50;;;17.00;99.90;;;;;;5096430;28;20036;-47
2023/10/03 08:26:25;;;;;;;11.43;2.75;;;17.00;99.90;;;;;;5096685;28;20548;-45
2023/10/03 08:29:04;;;;;;;10.27;2.17;;;17.00;99.90;;;;;;5097614;28;20036;-45
2023/10/03 08:31:38;;;;;;;11.75;2.50;;;17.10;99.90;;;;;;5095741;28;20082;-44
2023/10/03 08:34:10;;;;;;;9.85;1.92;;;17.10;99.90;;;;;;5093378;28;20043;-47
2023/10/03 08:36:37;;;;;;;9.18;2.10;;;17.10;99.90;;;;;;5096179;28;20491;-45
2023/10/03 08:39:12;;;;;;;13.50;2.67;;;17.10;99.90;;;;;;5096482;28;20107;-48
2023/10/03 08:41:47;;;;;;;8.80;1.60;;;16.90;99.90;;;;;;5095870;28;20047;-48
2023/10/03 08:44:13;;;;;;;6.88;1.60;;;16.70;99.90;;;;;;5086313;28;20047;-45
2023/10/03 08:46:47;;;;;;;7.43;1.58;;;16.50;99.90;;;;;;5103290;28;20040;-46
2023/10/03 08:49:17;;;;;;;7.07;1.80;;;16.40;99.90;;;;;;5101772;28;20040;-45
2023/10/03 08:51:45;;;;;;;7.47;1.73;;;16.20;99.90;;;;;;5094149;28;20085;-44
2023/10/03 08:54:12;;;;;;;7.80;1.83;;;16.10;99.90;;;;;;5082190;28;20077;-45
2023/10/03 08:56:41;;;;;;;10.40;1.55;;;16.00;99.90;;;;;;5102429;27;20486;-44
2023/10/03 08:59:10;;;;;;;7.60;1.58;;;16.00;99.90;;;;;;5096670;28;20056;-45
2023/10/03 09:01:43;;;;;;;8.57;2.13;;;15.90;99.90;;;;;;5098953;28;20052;-44
2023/10/03 09:04:15;;;;;;;;;;;15.90;99.90;;;;;;5101703;28;20051;-46
2023/10/03 09:06:41;;;;;;;6.97;1.95;;;15.90;99.90;;;;;;5102290;28;20445;-45
2023/10/03 09:09:08;;;;;;;5.95;1.40;;;16.00;99.90;;;;;;5102078;28;20084;-44
2023/10/03 09:11:45;;;;;;;3.10;1.10;;;16.10;99.90;;;;;;5100347;28;20039;-45
2023/10/03 09:14:14;;;;;;;7.75;1.30;;;16.10;99.90;;;;;;5101688;28;20429;-46
2023/10/03 09:16:39;;;;;;;5.18;1.00;;;16.10;99.90;;;;;;5102574;28;20044;-45
2023/10/03 09:19:09;;;;;;;3.80;1.33;;;16.10;99.90;;;;;;5101480;28;20044;-45
2023/10/03 09:21:35;;;;;;;3.40;1.00;;;16.10;99.90;;;;;;5083982;28;20143;-45
2023/10/03 09:24:09;;;;;;;5.57;1.25;;;16.10;99.90;;;;;;5100297;28;20070;-44
2023/10/03 09:26:47;;;;;;;6.22;1.17;;;16.10;99.90;;;;;;5100976;28;20384;-45
2023/10/03 09:29:29;;;;;;;5.70;1.20;;;16.20;99.90;;;;;;5102290;28;20051;-45
2023/10/03 09:32:15;;;;;;;5.90;1.00;;;16.20;99.90;;;;;;5099665;28;20051;-44
2023/10/03 09:34:46;;;;;;;5.82;1.00;;;16.30;99.90;;;;;;5102280;28;20039;-46
2023/10/03 09:37:12;;;;;;;6.78;1.60;;;16.30;99.90;;;;;;5102281;28;20090;-45
2023/10/03 09:39:48;;;;;;;6.03;1.05;;;16.20;99.90;;;;;;5099165;28;20111;-44
2023/10/03 09:42:19;;;;;;;4.72;1.30;;;16.20;99.90;;;;;;5097848;28;20050;-44
2023/10/03 09:44:51;;;;;;;3.63;0.90;;;16.20;99.90;;;;;;5085789;28;20054;-45
2023/10/03 09:47:18;;;;;;;5.72;1.33;;;16.10;99.90;;;;;;5100217;28;20058;-44
2023/10/03 09:49:46;;;;;;;5.15;1.45;;;16.10;99.90;;;;;;5099640;28;20768;-45
2023/10/03 09:52:18;;;;;;;5.35;1.15;;;16.20;99.90;;;;;;5109249;27;20503;-46
2023/10/03 09:54:43;;;;;;;4.55;1.10;;;16.20;99.90;;;;;;5098380;28;20043;-45
2023/10/03 09:57:16;;;;;;;4.47;0.85;;;16.30;99.90;;;;;;5101758;28;20501;-45
2023/10/03 09:59:46;;;;;;;2.85;1.15;;;16.30;99.90;;;;;;5101829;28;20504;-49
2023/10/03 10:02:14;;;;;;;10.65;1.75;;;16.30;99.90;;;;;;5098392;28;20051;-46
2023/10/03 10:04:42;;;;;;;5.43;2.00;;;16.30;99.90;;;;;;5099930;28;20133;-46
2023/10/03 10:07:34;;;;;;;6.97;1.58;;;16.20;99.90;;;;;;5101690;27;20043;-45
2023/10/03 10:10:09;;;;;;;6.15;1.75;;;16.20;99.90;;;;;;5100469;28;20079;-49
2023/10/03 10:12:38;;;;;;;6.82;2.17;;;16.10;99.90;;;;;;5100595;27;20047;-44
2023/10/03 10:17:51;;;;;;;9.05;1.80;;;15.90;99.90;;;;;;5100626;28;20043;-45
2023/10/03 10:20:33;;;;;;;6.95;1.52;;;15.90;99.90;;;;;;5101205;28;20495;-44
2023/10/03 10:22:59;;;;;;;5.60;1.48;;;15.90;99.90;;;;;;5102591;27;20055;-46
2023/10/03 10:25:56;;;;;;;8.60;1.98;;;15.90;99.90;;;;;;5101347;27;20039;-49
2023/10/03 10:28:27;;;;;;;4.78;1.73;;;15.90;99.90;;;;;;5099290;28;20039;-45
2023/10/03 10:31:11;;;;;;;8.38;2.13;;;15.80;99.90;;;;;;5101057;28;20060;-47
2023/10/03 10:33:37;;;;;;;7.38;1.73;;;15.80;99.90;;;;;;5088909;28;20490;-47
2023/10/03 10:36:04;;;;;;;8.93;1.67;;;15.90;99.90;;;;;;5099302;28;20130;-46
2023/10/03 10:38:32;;;;;;;5.28;1.85;;;16.00;99.90;;;;;;5091216;28;20441;-45
2023/10/03 10:41:26;;;;;;;11.07;3.60;;;16.10;99.90;;;;;;5099820;28;20421;-46
2023/10/03 10:44:08;;;;;;;5.10;1.60;;;16.30;99.90;;;;;;5083343;28;20059;-48
2023/10/03 10:46:39;;;;;;;6.15;1.65;;;16.20;99.90;;;;;;5086977;28;20564;-45
2023/10/03 10:49:25;;;;;;;7.07;1.65;;;16.10;99.90;;;;;;5099168;28;20071;-48
2023/10/03 10:51:57;;;;;;;4.53;1.83;;;16.00;99.90;;;;;;5097392;28;20206;-45
2023/10/03 10:54:24;;;;;;;5.50;1.73;;;16.00;99.90;;;;;;5096934;28;20047;-47
2023/10/03 10:57:03;;;;;;;5.60;2.20;;;16.00;99.90;;;;;;5099005;28;20036;-46
2023/10/03 10:59:39;;;;;;;3.08;1.42;;;16.10;99.90;;;;;;5085202;28;20048;-46
2023/10/03 11:02:17;;;;;;;5.38;1.85;;;16.10;99.90;;;;;;5093418;28;20173;-46
2023/10/03 11:04:43;;;;;;;5.13;1.85;;;16.20;99.90;;;;;;5097247;28;20043;-47
2023/10/03 11:07:09;;;;;;;8.75;2.67;;;16.10;99.90;;;;;;5098431;28;20073;-47
2023/10/03 11:09:38;;;;;;;5.78;2.10;;;16.00;99.90;;;;;;5097291;28;20313;-48
2023/10/03 11:12:06;;;;;;;5.70;2.78;;;16.00;99.90;;;;;;5097180;28;20051;-47
2023/10/03 11:14:33;;;;;;;7.30;2.55;;;15.80;99.90;;;;;;5098736;28;20376;-46
2023/10/03 11:17:01;;;;;;;6.53;2.80;;;15.70;99.90;;;;;;5099997;28;20046;-49
2023/10/03 11:19:30;;;;;;;6.97;2.90;;;15.60;99.90;;;;;;5100770;28;20046;-45
2023/10/03 11:21:56;;;;;;;9.38;2.95;;;15.40;99.90;;;;;;5098438;28;20557;-44
2023/10/03 11:24:22;;;;;;;10.18;3.97;;;15.30;99.90;;;;;;5100476;28;20044;-48
2023/10/03 11:26:53;;;;;;;10.48;3.33;;;15.30;99.90;;;;;;5098916;28;20092;-48
2023/10/03 11:29:46;;;;;;;13.10;2.90;;;15.30;99.90;;;;;;5133713;27;20043;-48
2023/10/03 11:32:24;;;;;;;8.10;3.20;;;15.30;99.90;;;;;;5088453;28;20070;-45
2023/10/03 11:34:54;;;;;;;10.82;3.67;;;15.30;99.90;;;;;;5100723;28;20051;-46
2023/10/03 11:37:44;;;;;;;8.70;3.10;;;15.30;99.90;;;;;;5100742;28;20035;-45
2023/10/03 11:40:13;;;;;;;10.55;3.67;;;15.40;99.90;;;;;;5088332;28;20455;-45
2023/10/03 11:43:02;;;;;;;7.75;3.20;;;15.60;99.90;;;;;;5097697;28;20083;-44
2023/10/03 11:45:29;;;;;;;10.70;3.20;;;15.70;99.90;;;;;;5091352;28;20035;-44
2023/10/03 11:48:07;;;;;;;9.88;3.05;;;15.80;99.90;;;;;;5100491;28;20188;-45
2023/10/03 11:50:38;;;;;;;11.38;3.13;;;15.80;99.90;;;;;;5100279;28;20111;-44
2023/10/03 11:53:05;;;;;;;7.50;3.00;;;15.90;99.90;;;;;;5098527;28;20170;-45
2023/10/03 11:55:36;;;;;;;8.13;3.55;;;15.90;99.90;;;;;;5100196;28;20051;-45
2023/10/03 11:58:03;;;;;;;11.73;3.20;;;16.00;99.90;;;;;;5100125;28;20233;-46
2023/10/03 12:00:29;;;;;;;9.63;3.53;;;16.10;99.90;;;;;;5097374;28;20097;-44
2023/10/03 12:02:55;;;;;;;7.90;3.72;;;16.10;99.90;;;;;;5094470;28;20044;-46
2023/10/03 12:05:22;;;;;;;12.48;4.07;;;16.10;99.90;;;;;;5097976;28;20157;-46
2023/10/03 12:07:50;;;;;;;10.20;4.25;;;16.20;99.90;;;;;;5098068;28;20047;-44
2023/10/03 12:10:19;;;;;;;12.68;4.35;;;16.20;99.90;;;;;;5098167;28;20391;-46
2023/10/03 12:12:45;;;;;;;8.48;3.47;;;16.10;99.90;;;;;;5107537;28;20031;-45
2023/10/03 12:15:12;;;;;;;15.77;3.95;;;16.00;99.90;;;;;;5110620;28;20317;-45
2023/10/03 12:17:39;;;;;;;10.77;3.38;;;16.00;99.90;;;;;;5090020;28;20085;-45
2023/10/03 12:20:06;;;;;;;10.10;2.75;;;16.00;99.90;;;;;;5108258;27;20102;-46
2023/10/03 12:22:31;;;;;;;13.85;3.25;;;15.90;99.90;;;;;;5111284;27;20059;-44
2023/10/03 12:24:57;;;;;;;8.90;2.80;;;15.90;99.90;;;;;;5108774;27;20462;-47
2023/10/03 12:27:23;;;;;;;10.93;2.92;;;15.70;99.90;;;;;;5110806;27;20167;-44
2023/10/03 12:29:49;;;;;;;11.52;2.95;;;15.70;99.90;;;;;;5111529;27;20046;-44
2023/10/03 12:32:14;;;;;;;13.93;3.88;;;15.70;99.90;;;;;;5111014;27;20039;-44
2023/10/03 12:34:40;;;;;;;8.00;2.92;;;15.60;99.90;;;;;;5095653;27;20056;-47
2023/10/03 12:37:11;;;;;;;13.43;2.80;;;15.60;99.90;;;;;;5092666;27;20092;-45
2023/10/03 12:39:37;;;;;;;11.57;3.20;;;15.60;99.90;;;;;;5111385;27;20074;-44
2023/10/03 12:42:04;;;;;;;9.68;3.60;;;15.60;99.90;;;;;;5107536;27;20379;-44
2023/10/03 12:44:31;;;;;;;10.65;3.53;;;15.60;99.90;;;;;;5098275;27;20044;-44
2023/10/03 12:46:58;;;;;;;12.70;3.30;;;15.60;99.90;;;;;;5102551;28;20557;-44
2023/10/03 12:49:23;;;;;;;11.23;3.35;;;15.60;99.90;;;;;;5087523;27;20028;-44
2023/10/03 12:51:50;;;;;;;8.77;2.95;;;15.70;99.90;;;;;;5108163;27;20484;-45